Time;durP1;ratioP1;P1;durP2;ratioP2;P2;SDS_P1;SDS_P2;PMS_P1;PMS_P2;Temp;Humidity;BMP_temperature;BMP_pressure;BME280_temperature;BME280_humidity;BME280_pressure;Samples;Min_cycle;Max_cycle;Signal;HPM_P1;HPM_P2
2020/12/28 00:00:44;;;;;;;6.10;5.43;;;2.90;1.00;;;;;;5022510;28;20219;-82
2020/12/28 00:03:11;;;;;;;6.05;4.80;;;2.90;1.00;;;;;;5013270;28;20227;-81
2020/12/28 00:05:37;;;;;;;7.78;6.97;;;2.90;1.00;;;;;;5007079;28;20370;-79
2020/12/28 00:08:03;;;;;;;7.38;6.15;;;3.00;1.00;;;;;;5010851;28;20235;-81
2020/12/28 00:10:30;;;;;;;8.27;6.80;;;3.00;1.00;;;;;;4989560;28;20270;-79
2020/12/28 00:12:56;;;;;;;6.93;5.47;;;2.90;1.00;;;;;;5026939;28;20216;-79
2020/12/28 00:15:26;;;;;;;6.40;5.15;;;3.00;1.00;;;;;;5028916;28;20429;-80
2020/12/28 00:17:55;;;;;;;7.05;5.40;;;2.90;1.00;;;;;;5028056;28;20287;-78
2020/12/28 00:20:23;;;;;;;7.22;5.47;;;2.90;1.00;;;;;;5024081;28;21036;-81
2020/12/28 00:22:50;;;;;;;6.95;6.05;;;2.90;1.00;;;;;;5013571;28;20289;-82
2020/12/28 00:25:19;;;;;;;7.00;5.50;;;2.80;1.00;;;;;;5010748;28;20219;-80
2020/12/28 00:27:47;;;;;;;6.50;5.38;;;2.80;1.00;;;;;;4991297;28;20382;-79
2020/12/28 00:30:13;;;;;;;11.07;8.93;;;2.80;1.00;;;;;;5017039;28;20239;-80
2020/12/28 00:32:39;;;;;;;6.10;5.22;;;2.80;1.00;;;;;;5011161;28;20238;-80
2020/12/28 00:35:07;;;;;;;8.65;5.60;;;2.70;1.00;;;;;;5012765;28;20227;-80
2020/12/28 00:37:33;;;;;;;6.57;5.88;;;2.70;1.00;;;;;;5001641;28;20326;-79
2020/12/28 00:40:00;;;;;;;6.57;5.60;;;2.70;1.00;;;;;;5017394;28;20227;-79
2020/12/28 00:42:26;;;;;;;6.47;5.57;;;2.70;1.00;;;;;;5022912;28;20266;-79
2020/12/28 00:44:54;;;;;;;9.85;7.07;;;2.70;1.00;;;;;;5013808;28;20282;-77
2020/12/28 00:47:20;;;;;;;5.97;5.35;;;2.70;1.00;;;;;;5012469;28;20823;-79
2020/12/28 00:49:46;;;;;;;7.22;5.82;;;2.70;1.00;;;;;;4990234;28;20799;-79
2020/12/28 00:52:13;;;;;;;6.93;5.57;;;2.70;1.00;;;;;;4999764;28;20239;-78
2020/12/28 00:54:39;;;;;;;8.95;7.20;;;2.70;1.00;;;;;;5013588;28;20298;-81
2020/12/28 00:57:05;;;;;;;6.35;5.32;;;2.70;1.00;;;;;;4992425;28;20232;-79
2020/12/28 00:59:31;;;;;;;7.07;5.53;;;2.70;1.00;;;;;;5007798;28;20299;-80
2020/12/28 01:01:59;;;;;;;6.60;5.00;;;2.70;1.00;;;;;;5013672;28;20218;-81
2020/12/28 01:04:26;;;;;;;9.13;6.90;;;2.60;1.00;;;;;;5011742;28;20278;-79
2020/12/28 01:06:56;;;;;;;8.15;6.40;;;2.60;1.00;;;;;;5010202;28;20223;-78
2020/12/28 01:09:22;;;;;;;6.30;5.68;;;2.70;1.00;;;;;;5023025;28;20283;-77
2020/12/28 01:11:49;;;;;;;6.28;5.68;;;2.70;1.00;;;;;;5019078;28;20229;-80
2020/12/28 01:14:15;;;;;;;7.25;6.30;;;2.70;1.00;;;;;;5010120;28;20281;-79
2020/12/28 01:16:43;;;;;;;8.52;5.55;;;2.70;1.00;;;;;;5003909;28;20337;-80
2020/12/28 01:19:11;;;;;;;6.15;5.20;;;2.70;1.00;;;;;;5011483;28;20285;-80
2020/12/28 01:21:37;;;;;;;6.60;5.00;;;2.70;1.00;;;;;;5007753;28;20262;-79
2020/12/28 01:24:04;;;;;;;6.43;5.50;;;2.80;1.00;;;;;;5008825;28;20239;-80
2020/12/28 01:26:30;;;;;;;7.00;5.45;;;2.70;1.00;;;;;;4997093;28;20369;-80
2020/12/28 01:28:57;;;;;;;8.95;5.75;;;2.70;1.00;;;;;;5005307;28;21049;-78
2020/12/28 01:31:23;;;;;;;7.00;6.10;;;2.70;1.00;;;;;;5008771;28;20416;-78
2020/12/28 01:33:49;;;;;;;7.57;6.50;;;2.70;1.00;;;;;;5010368;28;20245;-79
2020/12/28 01:36:16;;;;;;;8.10;6.18;;;2.70;1.00;;;;;;5012994;28;20324;-78
2020/12/28 01:38:43;;;;;;;6.45;5.15;;;2.70;1.00;;;;;;5021092;28;20223;-77
2020/12/28 01:41:09;;;;;;;7.30;6.10;;;2.70;1.00;;;;;;5031434;28;20214;-79
2020/12/28 01:43:36;;;;;;;6.60;5.25;;;2.70;1.00;;;;;;5005912;28;20223;-78
2020/12/28 01:46:03;;;;;;;8.75;6.28;;;2.70;1.00;;;;;;5015263;28;20251;-81
2020/12/28 01:48:30;;;;;;;8.10;5.60;;;2.70;1.00;;;;;;4998473;28;20247;-78
2020/12/28 01:50:57;;;;;;;6.57;5.15;;;2.70;1.00;;;;;;5006577;28;21169;-78
2020/12/28 01:53:25;;;;;;;6.28;5.65;;;2.60;1.00;;;;;;5022364;28;20229;-78
2020/12/28 01:56:00;;;;;;;7.57;5.82;;;2.70;1.00;;;;;;5017679;28;21147;-78
2020/12/28 01:58:27;;;;;;;8.70;6.55;;;2.60;1.00;;;;;;5002714;28;20234;-77
2020/12/28 02:00:53;;;;;;;8.60;5.90;;;2.60;1.00;;;;;;5016564;28;20274;-78
2020/12/28 02:03:19;;;;;;;7.30;6.38;;;2.60;1.00;;;;;;5019744;28;20283;-80
2020/12/28 02:05:46;;;;;;;9.23;6.47;;;2.70;1.00;;;;;;4998588;28;20273;-80
2020/12/28 02:08:13;;;;;;;7.45;6.45;;;2.70;1.00;;;;;;4996224;28;20239;-79
2020/12/28 02:10:40;;;;;;;7.25;5.78;;;2.70;1.00;;;;;;5015457;28;20270;-80
2020/12/28 02:13:06;;;;;;;8.90;5.82;;;2.60;1.00;;;;;;5010443;28;20722;-80
2020/12/28 02:15:33;;;;;;;6.63;5.38;;;2.60;1.00;;;;;;5010591;28;20294;-81
2020/12/28 02:17:59;;;;;;;6.80;6.10;;;2.70;1.00;;;;;;5006002;28;21066;-79
2020/12/28 02:20:26;;;;;;;8.27;6.93;;;2.60;1.00;;;;;;5020335;28;20227;-79
2020/12/28 02:22:53;;;;;;;8.10;6.53;;;2.60;1.00;;;;;;5022625;28;20389;-80
2020/12/28 02:25:19;;;;;;;7.45;6.28;;;2.60;1.00;;;;;;5005767;28;20253;-79
2020/12/28 02:27:46;;;;;;;6.60;5.85;;;2.60;1.00;;;;;;5019784;28;20229;-77
2020/12/28 02:30:12;;;;;;;7.63;6.55;;;2.60;1.00;;;;;;5015570;28;20226;-78
2020/12/28 02:32:39;;;;;;;6.47;5.78;;;2.60;1.00;;;;;;5026598;28;20215;-79
2020/12/28 02:35:06;;;;;;;9.45;6.80;;;2.60;1.00;;;;;;5028363;28;20282;-80
2020/12/28 02:37:32;;;;;;;7.18;6.28;;;2.60;1.00;;;;;;5020401;28;20309;-80
2020/12/28 02:40:00;;;;;;;7.30;5.68;;;2.60;1.00;;;;;;5011155;28;20212;-80
2020/12/28 02:42:27;;;;;;;6.05;5.45;;;2.60;1.00;;;;;;5015719;28;20251;-82
2020/12/28 02:44:53;;;;;;;7.97;6.35;;;2.60;1.00;;;;;;5012890;28;20277;-80
2020/12/28 02:47:19;;;;;;;7.82;5.78;;;2.60;1.00;;;;;;5015928;28;20312;-80
2020/12/28 02:49:45;;;;;;;8.18;6.82;;;2.60;1.00;;;;;;5007485;28;20379;-80
2020/12/28 02:52:11;;;;;;;9.68;6.70;;;2.60;1.00;;;;;;4996260;28;21278;-81
2020/12/28 02:54:38;;;;;;;7.30;6.10;;;2.50;1.00;;;;;;5018304;28;20219;-81
2020/12/28 02:57:05;;;;;;;7.97;6.50;;;2.50;1.00;;;;;;4996391;28;20226;-79
2020/12/28 02:59:31;;;;;;;7.50;6.63;;;2.50;1.00;;;;;;5018801;28;20223;-82
2020/12/28 03:01:57;;;;;;;8.23;7.20;;;2.50;1.00;;;;;;5016217;28;20257;-81
2020/12/28 03:04:23;;;;;;;8.52;6.25;;;2.50;1.00;;;;;;5014082;28;20236;-82
2020/12/28 03:06:50;;;;;;;8.70;5.82;;;2.50;1.00;;;;;;5019139;28;20227;-80
2020/12/28 03:09:16;;;;;;;6.97;6.20;;;2.50;1.00;;;;;;5019866;28;20273;-81
2020/12/28 03:11:43;;;;;;;8.32;6.70;;;2.50;1.00;;;;;;5013515;28;20247;-79
2020/12/28 03:14:10;;;;;;;8.73;7.07;;;2.50;1.00;;;;;;5019593;28;20222;-79
2020/12/28 03:16:36;;;;;;;7.57;6.22;;;2.50;1.00;;;;;;5021796;28;20217;-81
2020/12/28 03:19:03;;;;;;;7.32;6.32;;;2.50;1.00;;;;;;5018925;28;20231;-80
2020/12/28 03:21:29;;;;;;;7.88;6.35;;;2.60;1.00;;;;;;5007549;28;20227;-79
2020/12/28 03:23:55;;;;;;;8.40;6.95;;;2.60;1.00;;;;;;5018916;28;21060;-81
2020/12/28 03:26:22;;;;;;;7.80;6.22;;;2.60;1.00;;;;;;5016006;28;20262;-81
2020/12/28 03:28:48;;;;;;;7.68;6.03;;;2.70;1.00;;;;;;4999666;28;20251;-81
2020/12/28 03:31:15;;;;;;;8.05;7.20;;;2.80;1.00;;;;;;4998514;28;20231;-80
2020/12/28 03:33:41;;;;;;;7.35;6.13;;;2.80;1.00;;;;;;4997107;28;20232;-81
2020/12/28 03:36:08;;;;;;;6.63;5.95;;;2.80;1.00;;;;;;5017105;28;20234;-80
2020/12/28 03:38:34;;;;;;;7.43;6.63;;;2.70;1.00;;;;;;5008733;28;21165;-80
2020/12/28 03:41:00;;;;;;;6.82;6.10;;;2.80;1.00;;;;;;4995177;28;20222;-80
2020/12/28 03:43:27;;;;;;;7.30;6.20;;;2.80;1.00;;;;;;5017548;28;20258;-80
2020/12/28 03:45:53;;;;;;;7.50;5.90;;;2.80;1.00;;;;;;5008789;28;20290;-81
2020/12/28 03:48:20;;;;;;;7.93;6.53;;;2.80;1.00;;;;;;5012382;28;20699;-80
2020/12/28 03:50:46;;;;;;;7.88;6.20;;;2.80;1.00;;;;;;5025121;28;20262;-79
2020/12/28 03:53:12;;;;;;;7.63;6.93;;;2.80;1.00;;;;;;5023424;28;20215;-79
2020/12/28 03:55:38;;;;;;;7.53;6.60;;;2.80;1.00;;;;;;5028599;28;20242;-78
2020/12/28 03:58:05;;;;;;;7.28;6.25;;;2.80;1.00;;;;;;5020413;28;20259;-81
2020/12/28 04:00:32;;;;;;;9.13;6.90;;;2.70;1.00;;;;;;5017135;28;20227;-80
2020/12/28 04:02:58;;;;;;;9.02;7.40;;;2.70;1.00;;;;;;5014747;28;20997;-81
2020/12/28 04:05:25;;;;;;;7.93;6.80;;;2.70;1.00;;;;;;5009705;28;20219;-79
2020/12/28 04:07:51;;;;;;;7.72;7.00;;;2.60;1.00;;;;;;5007063;28;20226;-82
2020/12/28 04:10:18;;;;;;;8.23;6.80;;;2.60;1.00;;;;;;5012628;28;20219;-78
2020/12/28 04:12:44;;;;;;;7.88;7.03;;;2.60;1.00;;;;;;5008819;28;20307;-80
2020/12/28 04:15:10;;;;;;;7.53;6.50;;;2.60;1.00;;;;;;4996583;28;20219;-80
2020/12/28 04:17:36;;;;;;;7.30;6.60;;;2.60;1.00;;;;;;5023332;28;20215;-81
2020/12/28 04:20:04;;;;;;;6.90;6.13;;;2.60;1.00;;;;;;5029544;28;20218;-80
2020/12/28 04:22:31;;;;;;;7.35;6.65;;;2.60;1.00;;;;;;5034336;28;20306;-79
2020/12/28 04:24:58;;;;;;;6.85;6.15;;;2.60;1.00;;;;;;5025956;28;20211;-79
2020/12/28 04:27:24;;;;;;;9.32;7.57;;;2.60;1.00;;;;;;4997431;28;20235;-81
2020/12/28 04:29:50;;;;;;;7.30;6.57;;;2.70;1.00;;;;;;5009064;28;20234;-78
2020/12/28 04:32:16;;;;;;;9.52;7.40;;;2.70;1.00;;;;;;5024814;28;20291;-81
2020/12/28 04:34:43;;;;;;;7.10;6.32;;;2.60;1.00;;;;;;5020448;28;20222;-81
2020/12/28 04:37:09;;;;;;;9.00;7.75;;;2.60;1.00;;;;;;5020299;28;20226;-81
2020/12/28 04:39:37;;;;;;;8.48;7.68;;;2.70;1.00;;;;;;5005924;28;20245;-81
2020/12/28 04:42:04;;;;;;;7.28;6.65;;;2.60;1.00;;;;;;4994303;28;20307;-80
2020/12/28 04:44:33;;;;;;;8.02;6.55;;;2.60;1.00;;;;;;5009212;28;20318;-80
2020/12/28 04:46:59;;;;;;;6.72;6.03;;;2.70;1.00;;;;;;4995883;28;20231;-81
2020/12/28 04:49:26;;;;;;;7.28;6.57;;;2.60;1.00;;;;;;5012641;28;20247;-81
2020/12/28 04:51:54;;;;;;;7.95;7.07;;;2.60;1.00;;;;;;5013088;28;20219;-80
2020/12/28 04:54:21;;;;;;;9.13;7.70;;;2.60;1.00;;;;;;4998346;28;20234;-79
2020/12/28 04:56:48;;;;;;;8.35;6.78;;;2.60;1.00;;;;;;5006949;28;20990;-80
2020/12/28 04:59:14;;;;;;;11.50;7.90;;;2.70;1.00;;;;;;5012499;28;20302;-78
2020/12/28 05:01:51;;;;;;;6.82;6.03;;;2.60;1.00;;;;;;5011400;28;20254;-80
2020/12/28 05:04:18;;;;;;;9.48;6.57;;;2.60;1.00;;;;;;5014507;28;20219;-78
2020/12/28 05:06:54;;;;;;;8.13;7.38;;;2.60;1.00;;;;;;4998548;28;20231;-78
2020/12/28 05:09:21;;;;;;;7.32;6.63;;;2.60;1.00;;;;;;5009716;28;20330;-80
2020/12/28 05:11:52;;;;;;;8.40;7.60;;;2.70;1.00;;;;;;5004861;28;20231;-78
2020/12/28 05:14:19;;;;;;;7.95;7.15;;;2.60;1.00;;;;;;5031687;28;22011;-78
2020/12/28 05:16:46;;;;;;;9.98;9.00;;;2.60;1.00;;;;;;5030444;28;20239;-78
2020/12/28 05:19:12;;;;;;;8.55;7.47;;;2.70;1.00;;;;;;5027563;28;20235;-78
2020/12/28 05:21:38;;;;;;;8.77;7.88;;;2.70;1.00;;;;;;5034343;28;21635;-77
2020/12/28 05:24:11;;;;;;;9.25;7.63;;;2.70;1.00;;;;;;5030088;28;20210;-78
2020/12/28 05:26:42;;;;;;;7.88;6.97;;;2.70;1.00;;;;;;5014175;28;20258;-81
2020/12/28 05:29:13;;;;;;;7.72;6.97;;;2.70;1.00;;;;;;5008018;28;20281;-79
2020/12/28 05:31:39;;;;;;;9.13;8.20;;;2.60;1.00;;;;;;5011672;28;20230;-80
2020/12/28 05:34:11;;;;;;;8.18;7.22;;;2.60;1.00;;;;;;5012617;28;20696;-79
2020/12/28 05:36:38;;;;;;;8.57;7.82;;;2.50;1.00;;;;;;5013907;28;20258;-79
2020/12/28 05:39:04;;;;;;;10.35;7.45;;;2.60;1.00;;;;;;4996761;28;21234;-81
2020/12/28 05:41:30;;;;;;;8.65;7.93;;;2.50;1.00;;;;;;5012813;28;20705;-79
2020/12/28 05:43:57;;;;;;;8.55;7.65;;;2.50;1.00;;;;;;5016245;28;20233;-77
2020/12/28 05:46:24;;;;;;;8.90;8.10;;;2.50;1.00;;;;;;5015851;28;20233;-80
2020/12/28 05:48:55;;;;;;;9.32;7.80;;;2.50;1.00;;;;;;5016018;28;20235;-81
2020/12/28 05:51:21;;;;;;;8.95;7.78;;;2.50;1.00;;;;;;5012845;28;20298;-80
2020/12/28 05:53:48;;;;;;;8.85;7.95;;;2.50;1.00;;;;;;5015028;28;20223;-79
2020/12/28 05:56:14;;;;;;;12.00;8.48;;;2.40;1.00;;;;;;5011669;28;20238;-78
2020/12/28 05:58:43;;;;;;;10.13;8.88;;;2.40;1.00;;;;;;5010074;28;20311;-79
2020/12/28 06:01:10;;;;;;;9.75;8.75;;;2.40;1.00;;;;;;5007749;28;20341;-80
2020/12/28 06:03:41;;;;;;;10.18;9.00;;;2.30;1.00;;;;;;5000453;28;20227;-80
2020/12/28 06:06:08;;;;;;;10.40;9.15;;;2.30;1.00;;;;;;5018352;28;20223;-80
2020/12/28 06:08:34;;;;;;;18.35;16.45;;;2.30;1.00;;;;;;5021808;28;20226;-81
2020/12/28 06:11:06;;;;;;;14.50;13.10;;;2.30;1.00;;;;;;5001550;28;20234;-81
2020/12/28 06:13:32;;;;;;;12.27;10.10;;;2.30;1.00;;;;;;5008109;28;20223;-82
2020/12/28 06:16:03;;;;;;;11.88;9.68;;;2.20;1.00;;;;;;5022477;28;21033;-79
2020/12/28 06:18:30;;;;;;;10.57;8.85;;;2.20;1.00;;;;;;5028762;28;20223;-78
2020/12/28 06:20:59;;;;;;;10.77;9.48;;;2.20;1.00;;;;;;5034722;28;20292;-77
2020/12/28 06:23:26;;;;;;;10.50;9.40;;;2.30;1.00;;;;;;5032947;28;20255;-77
2020/12/28 06:25:53;;;;;;;12.00;9.77;;;2.30;1.00;;;;;;5011692;28;20229;-77
2020/12/28 06:28:23;;;;;;;10.40;9.30;;;2.30;1.00;;;;;;5003798;28;20235;-81
2020/12/28 06:30:50;;;;;;;11.75;10.02;;;2.30;1.00;;;;;;5020892;28;20242;-81
2020/12/28 06:33:17;;;;;;;9.27;8.32;;;2.20;1.00;;;;;;5000882;28;20621;-80
2020/12/28 06:35:43;;;;;;;12.98;9.32;;;2.20;1.00;;;;;;5006749;28;20231;-82
2020/12/28 06:38:10;;;;;;;9.95;9.02;;;2.20;1.00;;;;;;5022300;28;20250;-78
2020/12/28 06:40:38;;;;;;;11.93;8.80;;;2.20;1.00;;;;;;5031074;28;20214;-79
2020/12/28 06:43:11;;;;;;;10.88;9.40;;;2.20;1.00;;;;;;5013136;28;20231;-81
2020/12/28 06:45:39;;;;;;;13.65;9.40;;;2.20;1.00;;;;;;5025754;28;20222;-80
2020/12/28 06:48:16;;;;;;;10.55;8.55;;;2.20;1.00;;;;;;5012876;28;20238;-81
2020/12/28 06:50:42;;;;;;;11.20;10.07;;;2.10;1.00;;;;;;5021457;28;20218;-77
2020/12/28 06:53:08;;;;;;;9.68;8.07;;;2.10;1.00;;;;;;5035278;28;20219;-79
2020/12/28 06:55:36;;;;;;;12.85;9.55;;;2.10;1.00;;;;;;5014332;28;20227;-80
2020/12/28 06:58:02;;;;;;;11.25;9.82;;;2.10;1.00;;;;;;5022870;28;20716;-80
2020/12/28 07:00:29;;;;;;;13.38;9.48;;;2.10;1.00;;;;;;5023743;28;20909;-80
2020/12/28 07:02:56;;;;;;;10.35;9.27;;;2.10;1.00;;;;;;5023726;28;20215;-80
2020/12/28 07:05:24;;;;;;;10.63;9.63;;;2.10;1.00;;;;;;5010148;28;20215;-81
2020/12/28 07:07:50;;;;;;;10.57;9.57;;;2.10;1.00;;;;;;5023915;28;20209;-81
2020/12/28 07:10:18;;;;;;;10.23;9.13;;;2.00;1.00;;;;;;5020146;28;20239;-79
2020/12/28 07:12:45;;;;;;;10.93;9.05;;;2.00;1.00;;;;;;5022745;28;20317;-79
2020/12/28 07:15:12;;;;;;;10.55;8.50;;;2.00;1.00;;;;;;5018242;28;20359;-81
2020/12/28 07:17:39;;;;;;;9.82;7.88;;;2.00;1.00;;;;;;5001779;28;20227;-80
2020/12/28 07:20:07;;;;;;;11.15;10.07;;;2.00;1.00;;;;;;4996099;28;20231;-79
2020/12/28 07:22:37;;;;;;;12.07;9.85;;;2.00;1.00;;;;;;5015262;28;20223;-80
2020/12/28 07:25:04;;;;;;;10.15;9.15;;;2.00;1.00;;;;;;5011834;28;20234;-80
2020/12/28 07:27:31;;;;;;;12.90;10.43;;;2.00;1.00;;;;;;5013649;28;20421;-81
2020/12/28 07:29:58;;;;;;;16.42;12.40;;;2.00;1.00;;;;;;4996006;28;20246;-81
2020/12/28 07:32:25;;;;;;;11.10;9.85;;;2.10;1.00;;;;;;5019891;28;20270;-80
2020/12/28 07:34:53;;;;;;;11.88;10.00;;;2.10;1.00;;;;;;5016968;28;20281;-78
2020/12/28 07:37:20;;;;;;;21.17;14.50;;;2.10;1.00;;;;;;5030526;28;20211;-78
2020/12/28 07:39:48;;;;;;;15.20;12.50;;;2.10;1.00;;;;;;5006494;28;20207;-79
2020/12/28 07:42:21;;;;;;;12.23;10.88;;;2.10;1.00;;;;;;5025627;28;20246;-78
2020/12/28 07:44:56;;;;;;;17.50;11.30;;;2.10;1.00;;;;;;5014875;28;20219;-80
2020/12/28 07:47:34;;;;;;;12.60;9.73;;;2.10;1.00;;;;;;4992820;28;20231;-80
2020/12/28 07:50:02;;;;;;;11.15;9.30;;;2.10;1.00;;;;;;5004954;28;20227;-80
2020/12/28 07:52:30;;;;;;;11.05;9.93;;;2.20;1.00;;;;;;5011355;28;20219;-81
2020/12/28 07:55:05;;;;;;;11.82;9.48;;;2.20;1.00;;;;;;5014056;28;20728;-81
2020/12/28 07:57:39;;;;;;;12.85;9.65;;;2.20;1.00;;;;;;5009130;28;20237;-82
2020/12/28 08:00:06;;;;;;;12.07;10.13;;;2.20;1.00;;;;;;5017297;28;20219;-81
2020/12/28 08:03:11;;;;;;;13.25;10.05;;;2.20;1.00;;;;;;5012578;28;20286;-80
2020/12/28 08:05:38;;;;;;;11.65;10.00;;;2.20;1.00;;;;;;5015941;28;20207;-79
2020/12/28 08:08:06;;;;;;;12.13;10.80;;;2.30;1.00;;;;;;5013022;28;20223;-81
2020/12/28 08:10:33;;;;;;;10.55;9.45;;;2.40;1.00;;;;;;4994847;28;20282;-82
2020/12/28 08:12:59;;;;;;;12.98;10.30;;;2.40;1.00;;;;;;5013078;28;20329;-81
2020/12/28 08:15:27;;;;;;;13.02;11.05;;;2.50;1.00;;;;;;5016356;28;20231;-78
2020/12/28 08:18:08;;;;;;;12.95;10.40;;;2.60;1.00;;;;;;5015127;28;20743;-82
2020/12/28 08:20:34;;;;;;;11.38;9.82;;;2.60;1.00;;;;;;5015410;28;20250;-80
2020/12/28 08:23:01;;;;;;;11.43;10.23;;;2.60;1.00;;;;;;5006030;28;20244;-82
2020/12/28 08:25:28;;;;;;;11.63;10.50;;;2.70;1.00;;;;;;5016137;28;20219;-80
2020/12/28 08:27:56;;;;;;;12.55;10.32;;;2.80;1.00;;;;;;5018782;28;20235;-82
2020/12/28 08:30:25;;;;;;;9.95;9.05;;;2.80;1.00;;;;;;4997990;28;20331;-77
2020/12/28 08:32:51;;;;;;;11.32;10.13;;;2.80;1.00;;;;;;5014597;28;20223;-77
2020/12/28 08:35:19;;;;;;;11.30;9.25;;;2.80;1.00;;;;;;5032801;28;20234;-77
2020/12/28 08:37:49;;;;;;;12.00;10.13;;;2.80;1.00;;;;;;5012644;28;20227;-77
2020/12/28 08:40:17;;;;;;;9.80;8.82;;;2.90;1.00;;;;;;5017944;28;20216;-77
2020/12/28 08:42:44;;;;;;;14.40;9.43;;;3.00;1.00;;;;;;5012141;28;20326;-81
2020/12/28 08:45:21;;;;;;;10.07;9.05;;;3.00;1.00;;;;;;5017838;28;20242;-79
2020/12/28 08:47:53;;;;;;;12.55;10.00;;;3.00;1.00;;;;;;5004453;28;20239;-80
2020/12/28 08:50:20;;;;;;;14.70;11.48;;;3.00;1.00;;;;;;5017961;28;20230;-79
2020/12/28 08:52:50;;;;;;;11.57;9.75;;;3.10;1.00;;;;;;5016152;28;20274;-79
2020/12/28 08:55:18;;;;;;;12.65;10.63;;;3.10;1.00;;;;;;5012218;28;20230;-80
2020/12/28 08:57:50;;;;;;;9.70;8.70;;;3.10;1.00;;;;;;4995255;28;20250;-80
2020/12/28 09:00:16;;;;;;;9.98;9.07;;;3.10;1.00;;;;;;5015434;28;20230;-80
2020/12/28 09:02:50;;;;;;;9.20;8.43;;;3.20;1.00;;;;;;5016314;28;20223;-80
2020/12/28 09:05:17;;;;;;;14.68;9.80;;;3.20;1.00;;;;;;4994239;28;20246;-78
2020/12/28 09:07:44;;;;;;;10.32;9.20;;;3.20;1.00;;;;;;5020584;28;20242;-80
2020/12/28 09:10:11;;;;;;;11.52;10.43;;;3.30;1.00;;;;;;5017148;28;20243;-80
2020/12/28 09:12:37;;;;;;;10.55;9.45;;;3.30;1.00;;;;;;5016159;28;20219;-80
2020/12/28 09:15:04;;;;;;;10.38;9.05;;;3.30;1.00;;;;;;4990376;28;20231;-79
2020/12/28 09:17:30;;;;;;;10.27;9.13;;;3.30;1.00;;;;;;5010988;28;20296;-78
2020/12/28 09:19:56;;;;;;;11.35;9.45;;;3.40;1.00;;;;;;5011333;28;20223;-81
2020/12/28 09:22:23;;;;;;;10.38;9.18;;;3.40;1.00;;;;;;5012629;28;20254;-83
2020/12/28 09:24:50;;;;;;;10.10;8.80;;;3.50;1.00;;;;;;5012365;28;20219;-79
2020/12/28 09:27:17;;;;;;;9.18;8.27;;;3.50;1.00;;;;;;5018924;28;20246;-78
2020/12/28 09:29:44;;;;;;;13.25;10.85;;;3.50;1.00;;;;;;5013106;28;20321;-77
2020/12/28 09:32:10;;;;;;;9.52;8.52;;;3.60;1.00;;;;;;5018523;28;20215;-80
2020/12/28 09:34:37;;;;;;;11.55;8.48;;;3.70;1.00;;;;;;4994026;28;20230;-80
2020/12/28 09:37:41;;;;;;;10.32;8.80;;;3.90;1.00;;;;;;4997262;28;20352;-80
2020/12/28 09:40:08;;;;;;;9.77;7.88;;;4.00;1.00;;;;;;4995840;28;20280;-81
2020/12/28 09:42:35;;;;;;;10.20;8.65;;;4.00;1.00;;;;;;4996228;28;20231;-81
2020/12/28 09:45:01;;;;;;;10.68;8.35;;;4.00;1.00;;;;;;4997389;28;20253;-81
2020/12/28 09:47:27;;;;;;;8.98;8.07;;;4.00;1.00;;;;;;5000068;28;20232;-80
2020/12/28 09:49:54;;;;;;;9.32;8.43;;;4.00;1.00;;;;;;5012793;28;20250;-79
2020/12/28 09:52:20;;;;;;;8.95;8.05;;;4.10;1.00;;;;;;5024333;28;20250;-80
2020/12/28 09:54:46;;;;;;;12.30;8.85;;;4.10;1.00;;;;;;5025940;28;20242;-80
2020/12/28 09:57:15;;;;;;;12.35;9.35;;;4.10;1.00;;;;;;5003053;28;20236;-80
2020/12/28 09:59:41;;;;;;;8.50;7.70;;;4.20;1.00;;;;;;5019398;28;20226;-82
2020/12/28 10:02:08;;;;;;;9.00;7.70;;;4.30;1.00;;;;;;5026754;28;21660;-81
2020/12/28 10:04:34;;;;;;;8.85;7.35;;;4.40;1.00;;;;;;5018005;28;20223;-81
2020/12/28 10:07:01;;;;;;;9.52;7.13;;;4.40;1.00;;;;;;5010328;28;20223;-82
2020/12/28 10:09:27;;;;;;;8.20;7.40;;;4.40;1.00;;;;;;5005347;28;21059;-82
2020/12/28 10:11:53;;;;;;;8.75;7.60;;;4.40;1.00;;;;;;4991951;28;20219;-80
2020/12/28 10:14:21;;;;;;;8.88;7.80;;;4.50;1.00;;;;;;5001772;28;20218;-83
2020/12/28 10:16:47;;;;;;;9.68;7.75;;;4.50;1.00;;;;;;5012231;28;20751;-81
2020/12/28 10:19:16;;;;;;;9.02;7.40;;;4.70;1.00;;;;;;4992003;28;20306;-83
2020/12/28 10:21:42;;;;;;;8.18;6.72;;;4.70;1.00;;;;;;5012938;28;20222;-80
2020/12/28 10:24:11;;;;;;;7.63;6.93;;;4.80;1.00;;;;;;5006019;28;20976;-81
2020/12/28 10:26:37;;;;;;;7.13;6.50;;;4.90;1.00;;;;;;5005994;28;22101;-80
2020/12/28 10:29:06;;;;;;;8.15;7.20;;;4.90;1.00;;;;;;5008644;28;20230;-80
2020/12/28 10:31:33;;;;;;;6.25;5.65;;;5.00;1.00;;;;;;5010513;28;21041;-81
2020/12/28 10:34:07;;;;;;;8.70;6.70;;;5.10;1.00;;;;;;5009127;28;20333;-81
2020/12/28 10:36:33;;;;;;;8.07;7.05;;;5.10;1.00;;;;;;4990168;28;21331;-80
2020/12/28 10:39:00;;;;;;;9.20;6.55;;;5.30;1.00;;;;;;5025160;28;20263;-82
2020/12/28 10:41:29;;;;;;;7.35;6.60;;;5.40;1.00;;;;;;5017386;28;20215;-80
2020/12/28 10:43:56;;;;;;;7.68;6.97;;;5.60;1.00;;;;;;5008077;28;20272;-79
2020/12/28 10:46:23;;;;;;;8.07;7.28;;;5.80;1.00;;;;;;5016346;28;20263;-81
2020/12/28 10:48:50;;;;;;;8.70;7.55;;;5.90;1.00;;;;;;5023972;28;20206;-78
2020/12/28 10:51:17;;;;;;;7.22;6.50;;;6.00;1.00;;;;;;5033682;28;20226;-77
2020/12/28 10:53:43;;;;;;;6.32;5.70;;;6.10;1.00;;;;;;5018801;28;20223;-78
2020/12/28 10:56:09;;;;;;;9.57;7.13;;;5.90;1.00;;;;;;5034720;28;20461;-77
2020/12/28 10:58:36;;;;;;;7.72;6.90;;;6.10;1.00;;;;;;4998216;28;20238;-78
2020/12/28 11:01:05;;;;;;;6.95;6.25;;;6.20;1.00;;;;;;5019632;28;20227;-79
2020/12/28 11:03:31;;;;;;;7.20;5.78;;;6.10;1.00;;;;;;5017234;28;20245;-82
2020/12/28 11:06:00;;;;;;;8.60;6.03;;;6.10;1.00;;;;;;5018049;28;20291;-82
2020/12/28 11:08:27;;;;;;;7.13;6.43;;;6.30;1.00;;;;;;4992572;28;20262;-80
2020/12/28 11:10:53;;;;;;;7.57;6.13;;;6.30;1.00;;;;;;5005560;28;20247;-80
2020/12/28 11:13:23;;;;;;;8.25;6.85;;;6.50;1.00;;;;;;4997019;28;20243;-81
2020/12/28 11:15:50;;;;;;;6.00;5.45;;;6.70;1.00;;;;;;4993320;28;20233;-82
2020/12/28 11:18:16;;;;;;;7.35;6.05;;;6.60;1.00;;;;;;5012019;28;20234;-82
2020/12/28 11:20:43;;;;;;;7.30;6.60;;;6.70;1.00;;;;;;5002802;28;20235;-80
2020/12/28 11:23:10;;;;;;;6.63;5.57;;;6.80;1.00;;;;;;5008391;28;20241;-82
2020/12/28 11:25:36;;;;;;;6.78;5.72;;;6.90;1.00;;;;;;5002201;28;20286;-82
2020/12/28 11:28:03;;;;;;;6.80;5.40;;;7.10;1.00;;;;;;5012047;28;20310;-80
2020/12/28 11:30:29;;;;;;;7.25;5.90;;;7.10;1.00;;;;;;5017708;28;20227;-82
2020/12/28 11:32:55;;;;;;;9.93;8.15;;;7.20;1.00;;;;;;5000106;28;20371;-82
2020/12/28 11:35:22;;;;;;;6.82;6.13;;;7.20;1.00;;;;;;5015135;28;20236;-79
2020/12/28 11:37:48;;;;;;;6.40;5.80;;;7.40;1.00;;;;;;5011371;28;20277;-78
2020/12/28 11:40:30;;;;;;;6.10;5.50;;;7.30;1.00;;;;;;4996478;28;21106;-83
2020/12/28 11:42:58;;;;;;;8.45;6.75;;;7.30;1.00;;;;;;4995236;28;20223;-82
2020/12/28 11:45:25;;;;;;;6.28;5.68;;;7.40;1.00;;;;;;5014355;28;20687;-81
2020/12/28 11:47:51;;;;;;;6.75;6.05;;;7.60;1.00;;;;;;5006810;28;20302;-82
2020/12/28 11:50:18;;;;;;;8.45;6.25;;;7.40;1.00;;;;;;5010131;28;20250;-77
2020/12/28 11:52:45;;;;;;;6.50;5.93;;;7.60;1.00;;;;;;4997194;28;20255;-79
2020/12/28 11:55:11;;;;;;;7.05;6.45;;;7.80;1.00;;;;;;5010401;28;20238;-80
2020/12/28 11:57:39;;;;;;;8.32;6.50;;;8.20;1.00;;;;;;4993148;28;20243;-80
2020/12/28 12:00:05;;;;;;;8.35;6.15;;;8.50;1.00;;;;;;5009578;28;20780;-82
2020/12/28 12:02:32;;;;;;;7.22;6.32;;;8.80;1.00;;;;;;5009918;28;20227;-81
2020/12/28 12:04:59;;;;;;;6.30;5.70;;;8.70;1.00;;;;;;4994163;28;20702;-79
2020/12/28 12:07:26;;;;;;;5.60;5.00;;;8.50;1.00;;;;;;4997676;28;20234;-81
2020/12/28 12:09:52;;;;;;;6.38;5.78;;;7.90;1.00;;;;;;4997639;28;20345;-79
2020/12/28 12:12:20;;;;;;;7.50;6.72;;;7.40;1.00;;;;;;5011386;28;20227;-84
2020/12/28 12:14:47;;;;;;;7.38;6.68;;;7.10;1.00;;;;;;4999356;28;20266;-79
2020/12/28 12:17:15;;;;;;;8.95;7.53;;;6.90;1.00;;;;;;5018907;28;20234;-80
2020/12/28 12:19:41;;;;;;;7.93;7.13;;;6.90;1.00;;;;;;5001165;28;20315;-85
2020/12/28 12:22:08;;;;;;;10.68;8.15;;;6.80;1.00;;;;;;5010621;28;20279;-83
2020/12/28 12:24:35;;;;;;;6.50;5.82;;;6.70;1.00;;;;;;5006973;28;20261;-82
2020/12/28 12:27:02;;;;;;;7.53;6.72;;;6.50;1.00;;;;;;4993622;28;20251;-85
2020/12/28 12:29:29;;;;;;;8.40;6.75;;;6.30;1.00;;;;;;4995908;28;20263;-80
2020/12/28 12:31:56;;;;;;;6.45;5.85;;;6.20;1.00;;;;;;5012192;28;20238;-86
2020/12/28 12:34:26;;;;;;;6.50;5.90;;;6.10;1.00;;;;;;4991314;28;20227;-86
2020/12/28 12:36:52;;;;;;;5.82;5.28;;;6.10;1.00;;;;;;5013085;28;20957;-83
2020/12/28 12:39:18;;;;;;;7.57;6.35;;;6.10;1.00;;;;;;5010432;28;20938;-81
2020/12/28 12:42:12;;;;;;;8.60;6.97;;;6.00;1.00;;;;;;5013436;28;20278;-84
2020/12/28 12:44:40;;;;;;;9.25;7.25;;;6.10;1.00;;;;;;5013842;28;20482;-82
2020/12/28 12:47:07;;;;;;;8.05;6.00;;;6.20;1.00;;;;;;4992737;28;20251;-82
2020/12/28 12:49:33;;;;;;;9.05;6.47;;;6.10;1.00;;;;;;5012155;28;20227;-82
2020/12/28 12:52:13;;;;;;;7.07;6.38;;;6.10;1.00;;;;;;5012730;28;20223;-79
2020/12/28 12:54:40;;;;;;;9.25;8.20;;;6.00;1.00;;;;;;5007772;28;20223;-80
2020/12/28 12:57:06;;;;;;;8.13;6.95;;;5.90;1.00;;;;;;4997479;28;20239;-81
2020/12/28 13:00:01;;;;;;;6.80;6.10;;;6.00;1.00;;;;;;5022241;28;20211;-81
2020/12/28 13:02:21;;;;;;;8.43;6.93;;;6.10;1.00;;;;;;5016053;28;20295;-79
2020/12/28 13:04:48;;;;;;;6.90;5.93;;;6.20;1.00;;;;;;5003431;28;20232;-81